Time;durP1;ratioP1;P1;durP2;ratioP2;P2;SDS_P1;SDS_P2;PMS_P1;PMS_P2;Temp;Humidity;BMP_temperature;BMP_pressure;BME280_temperature;BME280_humidity;BME280_pressure;Samples;Min_cycle;Max_cycle;Signal;HPM_P1;HPM_P2
2022/02/18 08:51:19;;;;;;;18.08;10.38;;;;;;;8.35;100.00;99372.94;5141390;27;20349;-38
2022/02/18 08:53:46;;;;;;;18.23;9.48;;;;;;;8.35;100.00;99372.13;5118029;28;20051;-39
2022/02/18 08:56:15;;;;;;;14.13;7.55;;;;;;;8.40;100.00;99385.84;5121787;27;20057;-35
2022/02/18 08:58:43;;;;;;;16.50;7.28;;;;;;;8.47;100.00;99358.41;5111413;28;20035;-37
2022/02/18 09:01:11;;;;;;;13.65;7.35;;;;;;;8.54;100.00;99356.81;5109323;28;20048;-36
2022/02/18 09:03:42;;;;;;;18.75;7.97;;;;;;;8.58;100.00;99343.91;5103035;28;20405;-34
2022/02/18 09:06:09;;;;;;;13.93;6.93;;;;;;;8.67;100.00;99329.19;5107774;28;20420;-36
2022/02/18 09:08:39;;;;;;;14.10;6.95;;;;;;;8.73;100.00;99328.72;5111930;28;20050;-38
2022/02/18 09:11:07;;;;;;;17.08;7.15;;;;;;;8.79;100.00;99323.84;5109142;28;20058;-37
2022/02/18 09:13:35;;;;;;;12.63;6.35;;;;;;;8.83;100.00;99313.66;5111331;28;20043;-33
2022/02/18 09:16:02;;;;;;;15.23;6.38;;;;;;;8.88;100.00;99300.44;5108764;28;20044;-35
2022/02/18 09:18:37;;;;;;;13.27;6.30;;;;;;;8.91;100.00;99301.75;5110293;28;20078;-38
2022/02/18 09:21:06;;;;;;;12.63;6.20;;;;;;;8.97;100.00;99292.09;5107482;28;20054;-35
2022/02/18 09:23:55;;;;;;;13.23;5.80;;;;;;;8.99;100.00;99278.69;5110035;28;20047;-34
2022/02/18 09:26:26;;;;;;;14.25;6.10;;;;;;;9.02;100.00;99274.41;5109478;28;20538;-37
2022/02/18 09:28:54;;;;;;;15.23;6.30;;;;;;;9.06;100.00;99276.22;5117024;28;20168;-36
2022/02/18 09:31:22;;;;;;;13.70;6.13;;;;;;;9.10;100.00;99265.25;5109559;28;20098;-39
2022/02/18 09:33:51;;;;;;;18.80;6.40;;;;;;;9.13;100.00;99257.06;5114144;28;20031;-35
2022/02/18 09:36:19;;;;;;;13.27;5.72;;;;;;;9.16;100.00;99256.41;5119231;28;20044;-40
2022/02/18 09:38:47;;;;;;;20.70;6.32;;;;;;;9.18;100.00;99236.59;5116089;27;20052;-36
2022/02/18 09:41:16;;;;;;;17.83;6.50;;;;;;;9.15;100.00;99252.00;5106449;28;20141;-32
2022/02/18 09:43:45;;;;;;;15.30;5.70;;;;;;;9.16;100.00;99248.06;5104589;28;20496;-36
2022/02/18 09:46:14;;;;;;;14.85;5.32;;;;;;;9.18;100.00;99229.06;5108499;27;20055;-37
2022/02/18 09:48:42;;;;;;;16.67;5.15;;;;;;;9.17;100.00;99221.06;5116258;28;20050;-34
2022/02/18 09:51:11;;;;;;;16.00;5.78;;;;;;;9.18;100.00;99214.34;5102175;28;20059;-38
2022/02/18 09:53:39;;;;;;;21.13;5.32;;;;;;;9.16;100.00;99209.09;5100376;28;20130;-38
2022/02/18 09:56:08;;;;;;;18.05;5.07;;;;;;;9.17;100.00;99210.75;5095446;28;20406;-40
2022/02/18 09:58:39;;;;;;;19.83;5.13;;;;;;;9.17;100.00;99199.59;5095324;28;20406;-31
2022/02/18 10:01:07;;;;;;;15.90;4.85;;;;;;;9.20;100.00;99186.97;5102568;28;20039;-34
2022/02/18 10:03:35;;;;;;;19.88;4.93;;;;;;;9.20;100.00;99190.56;5104923;28;20044;-32
2022/02/18 10:06:03;;;;;;;17.58;5.10;;;;;;;9.20;100.00;99182.22;5096717;28;20074;-41
2022/02/18 10:08:31;;;;;;;21.35;4.25;;;;;;;9.23;100.00;99170.44;5093051;28;20052;-34
2022/02/18 10:11:02;;;;;;;19.25;4.22;;;;;;;9.23;100.00;99170.44;5101942;28;20048;-36
2022/02/18 10:13:35;;;;;;;20.67;3.90;;;;;;;9.26;100.00;99185.66;5096201;28;20055;-32
2022/02/18 10:16:13;;;;;;;21.45;4.32;;;;;;;9.25;100.00;99173.72;5086375;28;20488;-38
2022/02/18 10:18:51;;;;;;;17.27;3.75;;;;;;;9.24;100.00;99147.03;5096133;28;20048;-34
2022/02/18 10:21:20;;;;;;;17.77;3.28;;;;;;;9.25;100.00;99159.78;5087113;28;20059;-31
2022/02/18 10:23:48;;;;;;;14.15;3.35;;;;;;;9.26;100.00;99135.56;5092658;28;20052;-36
2022/02/18 10:26:16;;;;;;;21.08;4.15;;;;;;;9.26;100.00;99127.22;5095522;28;20048;-33
2022/02/18 10:28:55;;;;;;;17.70;3.50;;;;;;;9.30;100.00;99125.41;5091998;28;20432;-36
2022/02/18 10:31:25;;;;;;;18.55;3.47;;;;;;;9.28;100.00;99109.03;5096050;28;20047;-32
2022/02/18 10:34:03;;;;;;;16.70;3.25;;;;;;;9.28;100.00;99120.16;5091124;28;20139;-37
2022/02/18 10:36:40;;;;;;;16.50;3.40;;;;;;;9.27;100.00;99098.22;5094975;28;20050;-36
2022/02/18 10:39:24;;;;;;;16.50;3.17;;;;;;;9.26;100.00;99097.41;5093471;28;20051;-34
2022/02/18 10:41:57;;;;;;;20.50;3.88;;;;;;;9.24;100.00;99098.88;5101428;28;20409;-38
2022/02/18 10:44:26;;;;;;;19.60;3.08;;;;;;;9.25;100.00;99086.59;5094668;28;20570;-32
2022/02/18 10:47:00;;;;;;;21.92;3.45;;;;;;;9.26;100.00;99083.50;5101829;28;20089;-38
2022/02/18 10:49:32;;;;;;;19.00;3.25;;;;;;;9.25;100.00;99079.06;5094665;28;20552;-34
2022/02/18 10:52:03;;;;;;;16.83;3.63;;;;;;;9.29;100.00;99068.09;5101149;28;20048;-34
2022/02/18 10:54:32;;;;;;;18.07;2.87;;;;;;;9.28;100.00;99072.84;5092617;28;20043;-33
2022/02/18 10:57:13;;;;;;;18.42;3.22;;;;;;;9.31;100.00;99088.06;5093252;28;20063;-34
2022/02/18 10:59:41;;;;;;;18.05;3.42;;;;;;;9.30;100.00;99084.47;5092401;28;20058;-36
2022/02/18 11:02:11;;;;;;;16.70;3.00;;;;;;;9.31;100.00;99069.41;5093848;28;20401;-32
2022/02/18 11:04:38;;;;;;;17.58;3.35;;;;;;;9.33;100.00;99053.19;5090752;28;20086;-40
2022/02/18 11:07:11;;;;;;;19.42;4.05;;;;;;;9.36;100.00;99042.53;5093817;28;20515;-34
2022/02/18 11:09:42;;;;;;;18.52;3.10;;;;;;;9.42;100.00;99052.31;5080125;28;20048;-36
2022/02/18 11:12:11;;;;;;;17.42;3.30;;;;;;;9.40;100.00;99040.69;5092388;28;20043;-39
2022/02/18 11:14:41;;;;;;;19.55;3.25;;;;;;;9.48;100.00;99009.22;5095454;28;20490;-37
2022/02/18 11:17:13;;;;;;;22.95;3.28;;;;;;;9.51;100.00;99026.06;5101620;28;20044;-34
2022/02/18 11:19:43;;;;;;;19.10;2.75;;;;;;;9.52;100.00;98985.94;5091509;28;20044;-32
2022/02/18 11:22:15;;;;;;;16.00;3.53;;;;;;;9.56;100.00;99011.94;5091278;28;20139;-35
2022/02/18 11:24:45;;;;;;;20.77;3.17;;;;;;;9.57;100.00;98994.09;5096467;28;20501;-35
2022/02/18 11:27:13;;;;;;;23.08;3.25;;;;;;;9.57;100.00;98985.75;5087898;28;20058;-33
2022/02/18 11:29:41;;;;;;;17.23;3.85;;;;;;;9.61;100.00;98988.63;5102276;28;20048;-36
2022/02/18 11:32:21;;;;;;;23.60;3.47;;;;;;;9.64;100.00;98982.38;5097458;28;20048;-35
2022/02/18 11:35:09;;;;;;;22.42;3.50;;;;;;;9.65;100.00;98970.09;5093953;28;20067;-31
2022/02/18 11:38:10;;;;;;;24.23;4.22;;;;;;;9.59;100.00;98918.56;5089927;28;20043;-39
2022/02/18 11:40:43;;;;;;;23.52;3.45;;;;;;;9.55;100.00;98920.41;5079957;28;20551;-34
2022/02/18 11:43:27;;;;;;;28.40;4.63;;;;;;;9.53;100.00;98900.44;5092882;28;20039;-35
2022/02/18 11:45:58;;;;;;;20.65;3.58;;;;;;;9.52;100.00;98882.91;5081295;28;20047;-36
2022/02/18 11:48:42;;;;;;;33.22;4.05;;;;;;;9.52;100.00;98874.56;5093543;28;20437;-35
2022/02/18 11:51:17;;;;;;;24.35;3.65;;;;;;;9.50;100.00;98873.25;5082592;28;20494;-32
2022/02/18 11:53:46;;;;;;;24.52;4.47;;;;;;;9.50;100.00;98868.50;5093377;28;20076;-30
2022/02/18 11:56:18;;;;;;;28.95;4.30;;;;;;;9.48;100.00;98856.91;5091487;28;20468;-36
2022/02/18 11:58:53;;;;;;;32.80;4.82;;;;;;;9.46;100.00;98861.19;5093468;28;20051;-34
2022/02/18 12:02:00;;;;;;;26.83;3.90;;;;;;;9.42;100.00;98865.78;5079848;28;20040;-38
2022/02/18 12:04:29;;;;;;;29.58;4.43;;;;;;;9.34;100.00;98850.81;5094392;28;20486;-35
2022/02/18 12:07:23;;;;;;;33.05;4.75;;;;;;;9.38;100.00;98839.81;5091625;28;20044;-35
2022/02/18 12:10:16;;;;;;;36.50;5.30;;;;;;;9.28;100.00;98836.28;5095410;28;20421;-33
2022/02/18 12:12:44;;;;;;;33.05;4.63;;;;;;;9.21;100.00;98849.91;5103798;28;20052;-38
2022/02/18 12:15:15;;;;;;;36.20;5.07;;;;;;;9.16;100.00;98819.53;5093083;28;20043;-34
2022/02/18 12:17:46;;;;;;;34.35;4.90;;;;;;;9.14;100.00;98835.75;5093866;28;20577;-37
2022/02/18 12:20:17;;;;;;;36.95;5.13;;;;;;;9.05;100.00;98798.00;5084748;28;20050;-39
2022/02/18 12:22:45;;;;;;;37.57;6.87;;;;;;;9.00;100.00;98826.81;5093120;28;20059;-36
2022/02/18 12:25:22;;;;;;;39.13;6.43;;;;;;;8.99;100.00;98811.31;5100289;28;20376;-33
2022/02/18 12:27:51;;;;;;;39.78;5.78;;;;;;;8.91;100.00;98787.97;5093842;28;20044;-32
2022/02/18 12:30:36;;;;;;;41.33;5.78;;;;;;;8.89;100.00;98792.25;5099540;28;20056;-38
2022/02/18 12:33:04;;;;;;;41.67;6.82;;;;;;;8.84;100.00;98773.78;5090992;28;20127;-36
2022/02/18 12:35:34;;;;;;;41.63;6.40;;;;;;;8.86;100.00;98743.66;5090975;28;20054;-38
2022/02/18 12:38:05;;;;;;;39.80;6.13;;;;;;;8.83;100.00;98746.31;5103344;28;20523;-33
2022/02/18 12:40:36;;;;;;;38.58;6.43;;;;;;;8.83;100.00;98754.66;5094983;28;20042;-31
2022/02/18 12:43:07;;;;;;;42.83;5.95;;;;;;;8.84;100.00;98734.03;5103424;28;20059;-37
2022/02/18 12:45:41;;;;;;;37.92;6.63;;;;;;;8.86;100.00;98737.28;5094988;28;20040;-40
2022/02/18 12:48:09;;;;;;;38.00;6.32;;;;;;;8.82;100.00;98726.03;5104554;28;20048;-35
2022/02/18 12:50:42;;;;;;;50.33;7.60;;;;;;;8.86;100.00;98724.19;5095590;28;20060;-35
2022/02/18 12:53:10;;;;;;;40.22;6.03;;;;;;;8.88;100.00;98702.41;5105493;28;20125;-35
2022/02/18 12:55:39;;;;;;;40.92;6.38;;;;;;;8.92;100.00;98753.44;5097288;28;20097;-34
2022/02/18 12:58:14;;;;;;;51.97;7.35;;;;;;;8.92;100.00;98720.06;5104221;28;20078;-35
2022/02/18 13:00:42;;;;;;;43.50;7.57;;;;;;;8.96;100.00;98703.50;5098444;28;20537;-32
2022/02/18 13:03:11;;;;;;;38.75;7.05;;;;;;;8.97;100.00;98685.66;5092241;28;20074;-34
2022/02/18 13:05:42;;;;;;;45.17;7.32;;;;;;;8.99;100.00;98659.09;5090119;28;20067;-35
2022/02/18 13:08:22;;;;;;;50.42;7.60;;;;;;;8.94;100.00;98694.69;5102377;28;20059;-37
2022/02/18 13:10:53;;;;;;;41.22;6.57;;;;;;;8.97;100.00;98705.94;5090117;28;20046;-35
2022/02/18 13:13:23;;;;;;;49.45;8.05;;;;;;;9.05;100.00;98683.94;5099333;28;20123;-34
2022/02/18 13:15:52;;;;;;;48.13;7.40;;;;;;;9.13;100.00;98671.91;5088898;28;20047;-30
2022/02/18 13:18:20;;;;;;;44.70;8.82;;;;;;;9.15;100.00;98653.72;5094378;28;20044;-30
2022/02/18 13:20:52;;;;;;;40.75;7.70;;;;;;;9.15;100.00;98645.38;5091746;28;20048;-34
2022/02/18 13:23:22;;;;;;;51.08;7.90;;;;;;;9.14;100.00;98657.66;5094581;28;20058;-36
2022/02/18 13:25:52;;;;;;;50.92;7.15;;;;;;;9.16;100.00;98644.22;5092882;28;20387;-32
2022/02/18 13:28:21;;;;;;;44.92;7.78;;;;;;;9.16;100.00;98635.88;5106469;28;20035;-32
2022/02/18 13:30:51;;;;;;;60.75;8.40;;;;;;;9.14;100.00;98595.66;5097895;28;20060;-34
2022/02/18 13:33:27;;;;;;;53.65;8.40;;;;;;;9.17;100.00;98604.13;5104777;28;20047;-34
2022/02/18 13:35:59;;;;;;;45.17;8.82;;;;;;;9.11;100.00;98577.66;5096886;28;20126;-43
2022/02/18 13:38:31;;;;;;;58.67;8.88;;;;;;;9.17;100.00;98586.63;5098029;28;20048;-30
2022/02/18 13:41:10;;;;;;;48.63;8.65;;;;;;;9.14;100.00;98599.25;5098348;28;20046;-35
2022/02/18 13:43:40;;;;;;;47.13;7.93;;;;;;;9.10;100.00;98569.66;5098784;28;20310;-36
2022/02/18 13:46:09;;;;;;;54.33;8.07;;;;;;;9.06;100.00;98563.97;5104620;28;20048;-32
2022/02/18 13:48:39;;;;;;;62.90;9.70;;;;;;;9.07;100.00;98557.25;5097284;28;20075;-34
2022/02/18 13:51:10;;;;;;;51.72;8.93;;;;;;;9.09;100.00;98552.16;5096900;28;20052;-36
2022/02/18 13:53:39;;;;;;;66.85;10.27;;;;;;;9.16;100.00;98541.28;5101042;28;20226;-31
2022/02/18 13:56:27;;;;;;;66.55;11.32;;;;;;;9.16;100.00;98549.63;5097095;28;20063;-37
2022/02/18 13:59:16;;;;;;;70.75;10.32;;;;;;;9.10;100.00;98564.91;5102629;28;20086;-35
2022/02/18 14:01:45;;;;;;;66.30;10.32;;;;;;;9.06;100.00;98497.22;5094661;28;20055;-39
2022/02/18 14:04:18;;;;;;;77.18;12.00;;;;;;;9.10;100.00;98495.38;5095718;28;20594;-34
2022/02/18 14:06:55;;;;;;;79.40;11.05;;;;;;;9.03;100.00;98542.41;5095292;28;20070;-32
2022/02/18 14:09:22;;;;;;;65.75;10.30;;;;;;;9.06;100.00;98468.56;5095662;28;20135;-30
2022/02/18 14:11:53;;;;;;;72.70;11.43;;;;;;;8.99;100.00;98469.19;5095232;28;20058;-39
2022/02/18 14:14:20;;;;;;;68.13;10.75;;;;;;;8.95;100.00;98471.03;5099448;27;20504;-41
2022/02/18 14:16:50;;;;;;;66.15;10.60;;;;;;;8.91;100.00;98440.31;5096192;28;20056;-40
2022/02/18 14:19:19;;;;;;;71.18;11.43;;;;;;;8.88;100.00;98432.66;5098021;28;20048;-33
2022/02/18 14:21:59;;;;;;;72.40;10.73;;;;;;;8.87;100.00;98428.25;5106022;28;20073;-36
2022/02/18 14:24:32;;;;;;;69.97;11.05;;;;;;;8.83;100.00;98432.06;5087492;28;20035;-33
2022/02/18 14:27:00;;;;;;;76.85;11.85;;;;;;;8.82;100.00;98399.84;5096033;28;20431;-30
2022/02/18 14:29:27;;;;;;;70.15;11.70;;;;;;;8.81;100.00;98421.28;5102014;28;20058;-35
2022/02/18 14:31:57;;;;;;;77.07;12.65;;;;;;;8.74;100.00;98390.47;5095565;28;20052;-38
2022/02/18 14:34:27;;;;;;;77.13;11.95;;;;;;;8.72;100.00;98397.53;5102273;28;20106;-34
2022/02/18 14:37:05;;;;;;;75.22;12.57;;;;;;;8.70;100.00;98385.97;5092598;28;20524;-34
2022/02/18 14:39:41;;;;;;;75.43;13.85;;;;;;;8.66;100.00;98388.63;5102280;28;20052;-34
2022/02/18 14:42:14;;;;;;;83.00;13.07;;;;;;;8.62;100.00;98369.03;5095051;28;20055;-36
2022/02/18 14:44:50;;;;;;;69.40;11.75;;;;;;;8.60;100.00;98343.56;5101995;28;20044;-33
2022/02/18 14:47:20;;;;;;;66.95;10.88;;;;;;;8.60;100.00;98356.63;5093167;28;20051;-33
2022/02/18 14:49:48;;;;;;;61.70;11.05;;;;;;;8.56;100.00;98328.75;5100419;28;20047;-34
2022/02/18 14:52:19;;;;;;;82.22;12.95;;;;;;;8.56;100.00;98325.16;5094343;28;20083;-34
2022/02/18 14:54:48;;;;;;;63.97;11.75;;;;;;;8.57;100.00;98299.00;5091786;28;20048;-37
2022/02/18 14:57:15;;;;;;;74.32;12.52;;;;;;;8.54;100.00;98333.84;5112803;28;20401;-33
2022/02/18 14:59:44;;;;;;;77.45;13.48;;;;;;;8.51;100.00;98317.84;5100329;28;20047;-34
2022/02/18 15:02:13;;;;;;;80.18;12.90;;;;;;;8.49;100.00;98316.59;5094099;28;20040;-35
2022/02/18 15:04:40;;;;;;;86.82;12.23;;;;;;;8.45;100.00;98282.31;5092339;28;20050;-30
2022/02/18 15:07:09;;;;;;;71.75;11.50;;;;;;;8.46;100.00;98287.50;5099380;28;20047;-33
2022/02/18 15:09:38;;;;;;;72.53;12.40;;;;;;;8.40;100.00;98297.22;5090560;28;20051;-30
2022/02/18 15:12:07;;;;;;;85.15;13.15;;;;;;;8.39;100.00;98267.84;5096320;28;20044;-31
2022/02/18 15:14:35;;;;;;;89.15;14.20;;;;;;;8.37;100.00;98267.38;5093801;28;20048;-32
2022/02/18 15:17:04;;;;;;;85.82;13.15;;;;;;;8.33;100.00;98263.69;5103518;28;20057;-35
2022/02/18 15:19:32;;;;;;;92.10;14.48;;;;;;;8.29;100.00;98298.84;5098027;28;20055;-34
2022/02/18 15:22:00;;;;;;;80.78;14.13;;;;;;;8.26;100.00;98246.75;5096425;28;20386;-38
2022/02/18 15:24:27;;;;;;;89.40;15.15;;;;;;;8.26;100.00;98242.00;5096429;28;20046;-31
2022/02/18 15:26:56;;;;;;;85.03;13.15;;;;;;;8.28;100.00;98252.75;5098477;28;20040;-33
2022/02/18 15:35:15;;;;;;;71.03;10.43;;;;;;;8.26;100.00;98257.84;5101916;28;20054;-34
2022/02/18 15:37:43;;;;;;;54.17;9.80;;;;;;;8.30;100.00;98333.78;5095446;28;20078;-30
2022/02/18 15:42:58;;;;;;;63.00;10.35;;;;;;;8.36;100.00;98246.31;5102375;28;20043;-35
2022/02/18 15:45:26;;;;;;;45.42;8.40;;;;;;;8.34;100.00;98292.28;5101544;28;20044;-33
2022/02/18 15:47:53;;;;;;;67.03;10.38;;;;;;;8.32;100.00;98239.81;5094538;28;20048;-33
2022/02/18 15:50:21;;;;;;;47.83;8.20;;;;;;;8.25;100.00;98270.94;5093853;28;20494;-32
2022/02/18 15:52:49;;;;;;;73.22;10.43;;;;;;;8.17;100.00;98293.28;5098469;28;20060;-34
2022/02/18 15:55:18;;;;;;;63.70;9.63;;;;;;;8.12;100.00;98274.88;5102977;28;20044;-33
2022/02/18 15:57:46;;;;;;;59.45;9.85;;;;;;;8.09;100.00;98320.00;5097415;28;20114;-35
2022/02/18 16:00:19;;;;;;;52.00;8.10;;;;;;;8.13;100.00;98359.00;5104023;28;20564;-33
2022/02/18 16:02:49;;;;;;;51.15;8.65;;;;;;;8.07;100.00;98280.66;5094486;28;20135;-32
2022/02/18 16:05:17;;;;;;;58.70;9.00;;;;;;;8.10;100.00;98287.47;5093407;28;20048;-35
2022/02/18 16:07:46;;;;;;;41.17;7.60;;;;;;;8.11;100.00;98311.31;5099049;28;20425;-32
2022/02/18 16:10:13;;;;;;;51.90;8.20;;;;;;;8.03;100.00;98315.81;5094272;28;20417;-36
2022/02/18 16:12:42;;;;;;;44.58;7.72;;;;;;;8.03;100.00;98342.78;5100349;28;20039;-28
2022/02/18 16:15:11;;;;;;;51.38;8.30;;;;;;;8.05;100.00;98340.47;5093318;28;20047;-32
2022/02/18 16:17:44;;;;;;;53.50;8.27;;;;;;;8.05;100.00;98312.69;5100054;28;20040;-28
2022/02/18 16:20:12;;;;;;;45.33;8.15;;;;;;;8.04;100.00;98350.75;5091595;28;20486;-36
2022/02/18 16:22:40;;;;;;;50.30;8.10;;;;;;;7.99;100.00;98337.13;5089794;28;20050;-29
2022/02/18 16:25:10;;;;;;;41.53;7.30;;;;;;;7.95;100.00;98366.72;5094043;28;20051;-38
2022/02/18 16:27:38;;;;;;;44.03;6.22;;;;;;;7.90;100.00;98380.81;5099520;28;20055;-32
2022/02/18 16:30:07;;;;;;;48.65;6.22;;;;;;;7.90;100.00;98373.28;5103491;28;20523;-32
2022/02/18 16:32:38;;;;;;;40.28;6.25;;;;;;;7.96;100.00;98423.88;5099134;28;20442;-30
2022/02/18 16:35:08;;;;;;;33.50;6.88;;;;;;;7.97;100.00;98388.59;5100701;28;20560;-33
2022/02/18 16:37:38;;;;;;;36.90;6.55;;;;;;;7.99;100.00;98480.72;5100851;28;20510;-35
2022/02/18 16:40:07;;;;;;;35.92;5.65;;;;;;;7.97;100.00;98455.25;5095964;28;20113;-32
2022/02/18 16:42:40;;;;;;;32.65;5.65;;;;;;;7.98;100.00;98434.66;5087015;28;20059;-32
2022/02/18 16:45:09;;;;;;;38.50;6.03;;;;;;;7.94;100.00;98463.09;5092134;28;20132;-35
2022/02/18 16:47:36;;;;;;;35.47;5.45;;;;;;;7.91;100.00;98438.78;5100993;28;20565;-38
2022/02/18 16:50:05;;;;;;;37.67;5.93;;;;;;;7.85;100.00;98464.31;5092234;28;20064;-37
2022/02/18 16:52:35;;;;;;;32.20;5.97;;;;;;;7.83;100.00;98475.75;5100611;28;20044;-31
2022/02/18 16:55:03;;;;;;;29.40;5.85;;;;;;;7.70;100.00;98493.50;5092889;28;20071;-35
2022/02/18 16:57:31;;;;;;;34.90;5.95;;;;;;;7.67;100.00;98501.69;5092381;28;20075;-36
2022/02/18 16:59:59;;;;;;;27.58;4.93;;;;;;;7.59;100.00;98486.75;5090826;28;20050;-36
2022/02/18 17:02:26;;;;;;;36.72;6.15;;;;;;;7.53;100.00;98535.25;5095495;28;20566;-37
2022/02/18 17:04:54;;;;;;;26.90;4.65;;;;;;;7.42;100.00;98520.13;5101837;28;20147;-30
2022/02/18 17:07:22;;;;;;;35.22;5.25;;;;;;;7.26;100.00;98559.56;5097425;28;20048;-36
2022/02/18 17:09:51;;;;;;;30.20;5.70;;;;;;;7.15;100.00;98563.84;5097991;28;20066;-36
2022/02/18 17:12:19;;;;;;;30.77;4.75;;;;;;;6.98;100.00;98624.13;5108460;28;20493;-35
2022/02/18 17:14:47;;;;;;;38.40;4.65;;;;;;;6.77;100.00;98621.22;5099252;28;20047;-31
2022/02/18 17:17:18;;;;;;;32.10;4.18;;;;;;;6.57;100.00;98597.78;5107355;28;20067;-36
2022/02/18 17:19:45;;;;;;;24.98;4.00;;;;;;;6.51;100.00;98590.78;5099454;28;20059;-31
2022/02/18 17:22:14;;;;;;;31.63;5.15;;;;;;;6.51;100.00;98599.09;5108554;28;20047;-36
2022/02/18 17:24:42;;;;;;;26.63;4.55;;;;;;;6.58;100.00;98643.75;5098760;28;20040;-32
